sensor_id;sensor_type;location;lat;lon;timestamp;temperature;humidity
14008;DHT22;61651;45.508;12.232;2023-04-24T00:01:27;18.90;99.90
14008;DHT22;61651;45.508;12.232;2023-04-24T00:04:32;18.90;99.90
14008;DHT22;61651;45.508;12.232;2023-04-24T00:07:34;18.90;99.90
14008;DHT22;61651;45.508;12.232;2023-04-24T00:10:36;18.90;99.90
14008;DHT22;61651;45.508;12.232;2023-04-24T00:13:38;18.80;99.90
14008;DHT22;61651;45.508;12.232;2023-04-24T00:16:42;18.80;99.90
14008;DHT22;61651;45.508;12.232;2023-04-24T00:19:44;18.80;99.90
14008;DHT22;61651;45.508;12.232;2023-04-24T00:22:46;18.70;99.90
14008;DHT22;61651;45.508;12.232;2023-04-24T00:25:48;18.70;99.90
14008;DHT22;61651;45.508;12.232;2023-04-24T00:28:50;18.70;99.90
14008;DHT22;61651;45.508;12.232;2023-04-24T00:31:53;18.70;99.90
14008;DHT22;61651;45.508;12.232;2023-04-24T00:34:55;18.70;99.90
14008;DHT22;61651;45.508;12.232;2023-04-24T00:37:57;18.70;99.90
14008;DHT22;61651;45.508;12.232;2023-04-24T00:40:59;18.60;99.90
14008;DHT22;61651;45.508;12.232;2023-04-24T00:44:01;18.70;99.90
14008;DHT22;61651;45.508;12.232;2023-04-24T00:47:04;18.60;99.90
14008;DHT22;61651;45.508;12.232;2023-04-24T00:50:07;18.60;99.90
14008;DHT22;61651;45.508;12.232;2023-04-24T00:53:09;18.50;99.90
14008;DHT22;61651;45.508;12.232;2023-04-24T00:56:11;18.40;99.90
14008;DHT22;61651;45.508;12.232;2023-04-24T00:59:16;18.40;99.90
14008;DHT22;61651;45.508;12.232;2023-04-24T01:02:20;18.40;99.90
14008;DHT22;61651;45.508;12.232;2023-04-24T01:05:22;18.40;99.90
14008;DHT22;61651;45.508;12.232;2023-04-24T01:08:25;18.40;99.90
14008;DHT22;61651;45.508;12.232;2023-04-24T01:11:29;18.40;99.90
14008;DHT22;61651;45.508;12.232;2023-04-24T01:14:31;18.40;99.90
14008;DHT22;61651;45.508;12.232;2023-04-24T01:17:35;18.40;99.90
14008;DHT22;61651;45.508;12.232;2023-04-24T01:20:40;18.40;99.90
14008;DHT22;61651;45.508;12.232;2023-04-24T01:23:45;18.40;99.90
14008;DHT22;61651;45.508;12.232;2023-04-24T01:26:47;18.40;99.90
14008;DHT22;61651;45.508;12.232;2023-04-24T01:29:49;18.40;99.90
14008;DHT22;61651;45.508;12.232;2023-04-24T01:32:52;18.40;99.90
14008;DHT22;61651;45.508;12.232;2023-04-24T01:35:55;18.40;99.90
14008;DHT22;61651;45.508;12.232;2023-04-24T01:38:58;18.40;99.90
14008;DHT22;61651;45.508;12.232;2023-04-24T01:42:01;18.40;99.90
14008;DHT22;61651;45.508;12.232;2023-04-24T01:45:04;18.40;99.90
14008;DHT22;61651;45.508;12.232;2023-04-24T01:48:07;18.40;99.90
14008;DHT22;61651;45.508;12.232;2023-04-24T01:51:08;18.40;99.90
14008;DHT22;61651;45.508;12.232;2023-04-24T01:54:12;18.40;99.90
14008;DHT22;61651;45.508;12.232;2023-04-24T01:57:14;18.40;99.90
14008;DHT22;61651;45.508;12.232;2023-04-24T02:00:17;18.30;99.90
14008;DHT22;61651;45.508;12.232;2023-04-24T02:03:19;18.30;99.90
14008;DHT22;61651;45.508;12.232;2023-04-24T02:06:21;18.20;99.90
14008;DHT22;61651;45.508;12.232;2023-04-24T02:09:25;18.30;99.90
14008;DHT22;61651;45.508;12.232;2023-04-24T02:12:27;18.30;99.90
14008;DHT22;61651;45.508;12.232;2023-04-24T02:15:29;18.30;99.90
14008;DHT22;61651;45.508;12.232;2023-04-24T02:18:31;18.40;99.90
14008;DHT22;61651;45.508;12.232;2023-04-24T02:21:33;18.40;99.90
14008;DHT22;61651;45.508;12.232;2023-04-24T02:24:36;18.40;99.90
14008;DHT22;61651;45.508;12.232;2023-04-24T02:27:38;18.40;99.90
14008;DHT22;61651;45.508;12.232;2023-04-24T02:30:40;18.40;99.90
14008;DHT22;61651;45.508;12.232;2023-04-24T02:33:42;18.30;99.90
14008;DHT22;61651;45.508;12.232;2023-04-24T02:36:44;18.30;99.90
14008;DHT22;61651;45.508;12.232;2023-04-24T02:39:47;18.30;99.90
14008;DHT22;61651;45.508;12.232;2023-04-24T02:42:49;18.30;99.90
14008;DHT22;61651;45.508;12.232;2023-04-24T02:45:51;18.30;99.90
14008;DHT22;61651;45.508;12.232;2023-04-24T02:48:53;18.40;99.90
14008;DHT22;61651;45.508;12.232;2023-04-24T02:51:55;18.40;99.90
14008;DHT22;61651;45.508;12.232;2023-04-24T02:54:58;18.40;99.90
14008;DHT22;61651;45.508;12.232;2023-04-24T02:58:00;18.40;99.90
14008;DHT22;61651;45.508;12.232;2023-04-24T03:01:02;18.40;99.90
14008;DHT22;61651;45.508;12.232;2023-04-24T03:04:04;18.40;99.90
14008;DHT22;61651;45.508;12.232;2023-04-24T03:07:06;18.40;99.90
14008;DHT22;61651;45.508;12.232;2023-04-24T03:10:10;18.40;99.90
14008;DHT22;61651;45.508;12.232;2023-04-24T03:13:12;18.40;99.90
14008;DHT22;61651;45.508;12.232;2023-04-24T03:16:14;18.40;99.90
14008;DHT22;61651;45.508;12.232;2023-04-24T03:19:16;18.30;99.90
14008;DHT22;61651;45.508;12.232;2023-04-24T03:22:18;18.30;99.90
14008;DHT22;61651;45.508;12.232;2023-04-24T03:25:21;18.30;99.90
14008;DHT22;61651;45.508;12.232;2023-04-24T03:28:23;18.20;99.90
14008;DHT22;61651;45.508;12.232;2023-04-24T03:31:25;18.30;99.90
14008;DHT22;61651;45.508;12.232;2023-04-24T03:34:27;18.30;99.90
14008;DHT22;61651;45.508;12.232;2023-04-24T03:37:29;18.30;99.90
14008;DHT22;61651;45.508;12.232;2023-04-24T03:40:32;18.30;99.90
14008;DHT22;61651;45.508;12.232;2023-04-24T03:43:35;18.30;99.90
14008;DHT22;61651;45.508;12.232;2023-04-24T03:46:37;18.30;99.90
14008;DHT22;61651;45.508;12.232;2023-04-24T03:49:39;18.30;99.90
14008;DHT22;61651;45.508;12.232;2023-04-24T03:52:40;18.30;99.90
14008;DHT22;61651;45.508;12.232;2023-04-24T03:55:44;18.40;99.90
14008;DHT22;61651;45.508;12.232;2023-04-24T03:58:46;18.30;99.90
14008;DHT22;61651;45.508;12.232;2023-04-24T04:01:48;18.10;99.90
14008;DHT22;61651;45.508;12.232;2023-04-24T04:04:50;18.10;99.90
14008;DHT22;61651;45.508;12.232;2023-04-24T04:07:52;18.20;99.90
14008;DHT22;61651;45.508;12.232;2023-04-24T04:10:55;18.30;99.90
14008;DHT22;61651;45.508;12.232;2023-04-24T04:13:57;18.30;99.90
14008;DHT22;61651;45.508;12.232;2023-04-24T04:16:59;18.30;99.90
14008;DHT22;61651;45.508;12.232;2023-04-24T04:20:01;18.30;99.90
14008;DHT22;61651;45.508;12.232;2023-04-24T04:23:07;18.20;99.90
14008;DHT22;61651;45.508;12.232;2023-04-24T04:26:11;18.10;99.90
14008;DHT22;61651;45.508;12.232;2023-04-24T04:29:13;18.20;99.90
14008;DHT22;61651;45.508;12.232;2023-04-24T04:32:15;18.10;99.90
14008;DHT22;61651;45.508;12.232;2023-04-24T04:35:18;18.20;99.90
14008;DHT22;61651;45.508;12.232;2023-04-24T04:38:20;18.10;99.90
14008;DHT22;61651;45.508;12.232;2023-04-24T04:41:23;17.90;99.90
14008;DHT22;61651;45.508;12.232;2023-04-24T04:44:25;18.00;99.90
14008;DHT22;61651;45.508;12.232;2023-04-24T04:47:28;18.20;99.90
14008;DHT22;61651;45.508;12.232;2023-04-24T04:50:32;18.20;99.90
14008;DHT22;61651;45.508;12.232;2023-04-24T04:53:34;18.20;99.90
14008;DHT22;61651;45.508;12.232;2023-04-24T04:56:38;18.30;99.90
14008;DHT22;61651;45.508;12.232;2023-04-24T04:59:40;18.30;99.90
14008;DHT22;61651;45.508;12.232;2023-04-24T05:02:42;18.30;99.90
14008;DHT22;61651;45.508;12.232;2023-04-24T05:05:44;18.30;99.90
14008;DHT22;61651;45.508;12.232;2023-04-24T05:08:46;18.30;99.90
14008;DHT22;61651;45.508;12.232;2023-04-24T05:11:50;18.10;99.90
14008;DHT22;61651;45.508;12.232;2023-04-24T05:14:52;18.00;99.90
14008;DHT22;61651;45.508;12.232;2023-04-24T05:17:54;17.80;99.90
14008;DHT22;61651;45.508;12.232;2023-04-24T05:20:56;17.70;99.90
14008;DHT22;61651;45.508;12.232;2023-04-24T05:23:58;17.90;99.90
14008;DHT22;61651;45.508;12.232;2023-04-24T05:27:02;18.00;99.90
14008;DHT22;61651;45.508;12.232;2023-04-24T05:30:06;18.10;99.90
14008;DHT22;61651;45.508;12.232;2023-04-24T05:33:08;18.10;99.90
14008;DHT22;61651;45.508;12.232;2023-04-24T05:36:10;18.20;99.90
14008;DHT22;61651;45.508;12.232;2023-04-24T05:39:12;18.20;99.90
14008;DHT22;61651;45.508;12.232;2023-04-24T05:42:15;18.20;99.90
14008;DHT22;61651;45.508;12.232;2023-04-24T05:45:17;18.20;99.90
14008;DHT22;61651;45.508;12.232;2023-04-24T05:48:19;18.20;99.90
14008;DHT22;61651;45.508;12.232;2023-04-24T05:51:22;18.20;99.90
14008;DHT22;61651;45.508;12.232;2023-04-24T05:54:24;18.30;99.90
14008;DHT22;61651;45.508;12.232;2023-04-24T05:57:27;18.30;99.90
14008;DHT22;61651;45.508;12.232;2023-04-24T06:00:29;18.30;99.90
14008;DHT22;61651;45.508;12.232;2023-04-24T06:03:31;18.30;99.90
14008;DHT22;61651;45.508;12.232;2023-04-24T06:06:34;18.30;99.90
14008;DHT22;61651;45.508;12.232;2023-04-24T06:09:36;18.40;99.90
14008;DHT22;61651;45.508;12.232;2023-04-24T06:12:40;18.40;99.90
14008;DHT22;61651;45.508;12.232;2023-04-24T06:15:42;18.40;99.90
14008;DHT22;61651;45.508;12.232;2023-04-24T06:18:44;18.40;99.90
14008;DHT22;61651;45.508;12.232;2023-04-24T06:21:47;18.40;99.90
14008;DHT22;61651;45.508;12.232;2023-04-24T06:24:49;18.20;99.90
14008;DHT22;61651;45.508;12.232;2023-04-24T06:27:52;18.30;99.90
14008;DHT22;61651;45.508;12.232;2023-04-24T06:30:55;18.30;99.90
14008;DHT22;61651;45.508;12.232;2023-04-24T06:33:57;18.40;99.90
14008;DHT22;61651;45.508;12.232;2023-04-24T06:36:59;18.40;99.90
14008;DHT22;61651;45.508;12.232;2023-04-24T06:40:01;18.50;99.90
14008;DHT22;61651;45.508;12.232;2023-04-24T06:43:04;18.50;99.90
14008;DHT22;61651;45.508;12.232;2023-04-24T06:46:06;18.60;99.90
14008;DHT22;61651;45.508;12.232;2023-04-24T06:49:08;18.60;99.90
14008;DHT22;61651;45.508;12.232;2023-04-24T06:52:10;18.70;99.90
14008;DHT22;61651;45.508;12.232;2023-04-24T06:55:12;18.70;99.90
14008;DHT22;61651;45.508;12.232;2023-04-24T06:58:18;18.50;99.90
14008;DHT22;61651;45.508;12.232;2023-04-24T07:01:20;18.40;99.90
14008;DHT22;61651;45.508;12.232;2023-04-24T07:04:22;18.40;99.90
14008;DHT22;61651;45.508;12.232;2023-04-24T07:07:25;18.50;99.90
14008;DHT22;61651;45.508;12.232;2023-04-24T07:10:27;18.60;99.90
14008;DHT22;61651;45.508;12.232;2023-04-24T07:13:30;18.60;99.90
14008;DHT22;61651;45.508;12.232;2023-04-24T07:16:32;17.80;99.90
14008;DHT22;61651;45.508;12.232;2023-04-24T07:19:34;17.70;99.90
14008;DHT22;61651;45.508;12.232;2023-04-24T07:22:37;17.90;99.90
14008;DHT22;61651;45.508;12.232;2023-04-24T07:25:39;18.10;99.90
14008;DHT22;61651;45.508;12.232;2023-04-24T07:28:42;18.20;99.90
14008;DHT22;61651;45.508;12.232;2023-04-24T07:31:45;18.30;99.90
14008;DHT22;61651;45.508;12.232;2023-04-24T07:34:47;18.30;99.90
14008;DHT22;61651;45.508;12.232;2023-04-24T07:37:49;18.30;99.90
14008;DHT22;61651;45.508;12.232;2023-04-24T07:40:51;18.30;99.90
14008;DHT22;61651;45.508;12.232;2023-04-24T07:43:54;18.40;99.90
14008;DHT22;61651;45.508;12.232;2023-04-24T07:46:56;18.50;99.90
14008;DHT22;61651;45.508;12.232;2023-04-24T07:49:59;18.60;99.90
14008;DHT22;61651;45.508;12.232;2023-04-24T07:53:01;18.60;99.90
14008;DHT22;61651;45.508;12.232;2023-04-24T07:56:02;18.60;99.90
14008;DHT22;61651;45.508;12.232;2023-04-24T07:59:06;18.10;99.90
14008;DHT22;61651;45.508;12.232;2023-04-24T08:02:08;17.80;99.90
14008;DHT22;61651;45.508;12.232;2023-04-24T08:05:10;18.00;99.90
14008;DHT22;61651;45.508;12.232;2023-04-24T08:08:12;17.90;99.90
14008;DHT22;61651;45.508;12.232;2023-04-24T08:11:16;18.10;99.90
14008;DHT22;61651;45.508;12.232;2023-04-24T08:14:20;18.20;99.90
14008;DHT22;61651;45.508;12.232;2023-04-24T08:17:23;18.30;99.90
14008;DHT22;61651;45.508;12.232;2023-04-24T08:20:25;18.50;99.90
14008;DHT22;61651;45.508;12.232;2023-04-24T08:23:27;18.50;99.90
14008;DHT22;61651;45.508;12.232;2023-04-24T08:26:30;18.60;99.90
14008;DHT22;61651;45.508;12.232;2023-04-24T08:29:33;18.40;99.90
14008;DHT22;61651;45.508;12.232;2023-04-24T08:32:36;18.50;99.90
14008;DHT22;61651;45.508;12.232;2023-04-24T08:35:38;18.40;99.90
14008;DHT22;61651;45.508;12.232;2023-04-24T08:38:40;18.30;99.90
14008;DHT22;61651;45.508;12.232;2023-04-24T08:41:44;18.30;99.90
14008;DHT22;61651;45.508;12.232;2023-04-24T08:44:49;18.20;99.90
14008;DHT22;61651;45.508;12.232;2023-04-24T08:47:52;18.00;99.90
14008;DHT22;61651;45.508;12.232;2023-04-24T08:50:55;17.90;99.90
14008;DHT22;61651;45.508;12.232;2023-04-24T08:53:58;18.00;99.90
14008;DHT22;61651;45.508;12.232;2023-04-24T08:57:01;18.00;99.90
14008;DHT22;61651;45.508;12.232;2023-04-24T09:00:07;18.20;99.90
14008;DHT22;61651;45.508;12.232;2023-04-24T09:03:10;18.30;99.90
14008;DHT22;61651;45.508;12.232;2023-04-24T09:06:12;18.40;99.90
14008;DHT22;61651;45.508;12.232;2023-04-24T09:09:16;18.40;99.90
14008;DHT22;61651;45.508;12.232;2023-04-24T09:12:18;18.40;99.90
14008;DHT22;61651;45.508;12.232;2023-04-24T09:15:22;18.50;99.90
14008;DHT22;61651;45.508;12.232;2023-04-24T09:18:26;18.60;99.90
14008;DHT22;61651;45.508;12.232;2023-04-24T09:21:32;18.70;99.90
14008;DHT22;61651;45.508;12.232;2023-04-24T09:24:34;18.70;99.90
14008;DHT22;61651;45.508;12.232;2023-04-24T09:27:42;18.70;99.90
14008;DHT22;61651;45.508;12.232;2023-04-24T09:30:47;18.70;99.90
14008;DHT22;61651;45.508;12.232;2023-04-24T09:34:04;18.90;99.90
14008;DHT22;61651;45.508;12.232;2023-04-24T09:37:07;19.00;99.90
14008;DHT22;61651;45.508;12.232;2023-04-24T09:40:11;19.10;99.90
14008;DHT22;61651;45.508;12.232;2023-04-24T09:43:13;19.40;99.90
14008;DHT22;61651;45.508;12.232;2023-04-24T09:46:18;19.50;99.90
14008;DHT22;61651;45.508;12.232;2023-04-24T09:49:23;19.70;99.90
14008;DHT22;61651;45.508;12.232;2023-04-24T09:52:25;19.80;99.90
14008;DHT22;61651;45.508;12.232;2023-04-24T09:55:27;20.00;99.90
14008;DHT22;61651;45.508;12.232;2023-04-24T09:58:29;20.20;99.90
14008;DHT22;61651;45.508;12.232;2023-04-24T10:01:33;20.20;99.90
14008;DHT22;61651;45.508;12.232;2023-04-24T10:04:36;20.20;99.90
14008;DHT22;61651;45.508;12.232;2023-04-24T10:07:38;20.20;99.90
14008;DHT22;61651;45.508;12.232;2023-04-24T10:10:41;20.20;99.90
14008;DHT22;61651;45.508;12.232;2023-04-24T10:13:43;20.10;99.90
14008;DHT22;61651;45.508;12.232;2023-04-24T10:16:47;20.20;99.90
14008;DHT22;61651;45.508;12.232;2023-04-24T10:19:50;20.20;99.90
14008;DHT22;61651;45.508;12.232;2023-04-24T10:22:53;20.30;99.90
14008;DHT22;61651;45.508;12.232;2023-04-24T10:25:55;20.20;99.90
14008;DHT22;61651;45.508;12.232;2023-04-24T10:28:58;20.20;99.90
14008;DHT22;61651;45.508;12.232;2023-04-24T10:32:02;20.10;99.90
14008;DHT22;61651;45.508;12.232;2023-04-24T10:35:06;20.00;99.90
14008;DHT22;61651;45.508;12.232;2023-04-24T10:38:12;19.90;99.90
14008;DHT22;61651;45.508;12.232;2023-04-24T10:41:14;19.80;99.90
14008;DHT22;61651;45.508;12.232;2023-04-24T10:44:22;19.80;99.90
14008;DHT22;61651;45.508;12.232;2023-04-24T10:47:25;19.70;99.90
14008;DHT22;61651;45.508;12.232;2023-04-24T10:50:28;19.60;99.90
14008;DHT22;61651;45.508;12.232;2023-04-24T10:53:30;19.50;99.90
14008;DHT22;61651;45.508;12.232;2023-04-24T10:56:33;19.60;99.90
14008;DHT22;61651;45.508;12.232;2023-04-24T10:59:35;19.60;99.90
14008;DHT22;61651;45.508;12.232;2023-04-24T11:02:41;19.60;99.90
14008;DHT22;61651;45.508;12.232;2023-04-24T11:05:50;19.70;99.90
14008;DHT22;61651;45.508;12.232;2023-04-24T11:09:01;19.90;99.90
14008;DHT22;61651;45.508;12.232;2023-04-24T11:12:06;20.10;99.90
14008;DHT22;61651;45.508;12.232;2023-04-24T11:15:10;20.10;99.90
14008;DHT22;61651;45.508;12.232;2023-04-24T11:18:15;20.20;99.90
14008;DHT22;61651;45.508;12.232;2023-04-24T11:21:18;20.20;99.90
14008;DHT22;61651;45.508;12.232;2023-04-24T11:24:28;20.30;99.90
14008;DHT22;61651;45.508;12.232;2023-04-24T11:27:37;20.30;99.90
14008;DHT22;61651;45.508;12.232;2023-04-24T11:30:40;20.50;99.90
14008;DHT22;61651;45.508;12.232;2023-04-24T11:33:44;20.60;99.90
14008;DHT22;61651;45.508;12.232;2023-04-24T11:36:47;20.80;99.90
14008;DHT22;61651;45.508;12.232;2023-04-24T11:39:51;21.00;99.90
14008;DHT22;61651;45.508;12.232;2023-04-24T11:42:53;21.00;99.90
14008;DHT22;61651;45.508;12.232;2023-04-24T11:45:59;21.20;99.90
14008;DHT22;61651;45.508;12.232;2023-04-24T11:49:03;21.40;99.90
14008;DHT22;61651;45.508;12.232;2023-04-24T11:52:05;21.40;99.90
14008;DHT22;61651;45.508;12.232;2023-04-24T11:55:09;21.50;99.90
14008;DHT22;61651;45.508;12.232;2023-04-24T11:58:24;21.50;99.90
14008;DHT22;61651;45.508;12.232;2023-04-24T12:01:28;21.60;99.90
14008;DHT22;61651;45.508;12.232;2023-04-24T12:04:38;21.80;99.90
14008;DHT22;61651;45.508;12.232;2023-04-24T12:07:41;21.80;99.90
14008;DHT22;61651;45.508;12.232;2023-04-24T12:10:44;21.90;99.90
14008;DHT22;61651;45.508;12.232;2023-04-24T12:13:46;21.90;99.90
14008;DHT22;61651;45.508;12.232;2023-04-24T12:16:48;21.90;99.90
14008;DHT22;61651;45.508;12.232;2023-04-24T12:19:52;22.00;99.90
14008;DHT22;61651;45.508;12.232;2023-04-24T12:22:54;22.10;99.90
14008;DHT22;61651;45.508;12.232;2023-04-24T12:25:59;22.10;99.90
14008;DHT22;61651;45.508;12.232;2023-04-24T12:29:03;22.20;99.90
14008;DHT22;61651;45.508;12.232;2023-04-24T12:32:15;22.30;99.90
14008;DHT22;61651;45.508;12.232;2023-04-24T12:35:22;22.30;99.90
14008;DHT22;61651;45.508;12.232;2023-04-24T12:38:25;22.20;99.90
14008;DHT22;61651;45.508;12.232;2023-04-24T12:41:30;21.80;99.90
14008;DHT22;61651;45.508;12.232;2023-04-24T12:44:33;21.80;99.90
14008;DHT22;61651;45.508;12.232;2023-04-24T12:47:38;21.80;99.90
14008;DHT22;61651;45.508;12.232;2023-04-24T12:50:42;21.80;99.90
14008;DHT22;61651;45.508;12.232;2023-04-24T12:53:44;21.80;99.90
14008;DHT22;61651;45.508;12.232;2023-04-24T12:56:46;21.70;99.90
14008;DHT22;61651;45.508;12.232;2023-04-24T12:59:48;21.60;99.90
14008;DHT22;61651;45.508;12.232;2023-04-24T13:02:50;21.50;99.90
14008;DHT22;61651;45.508;12.232;2023-04-24T13:05:53;21.50;99.90
14008;DHT22;61651;45.508;12.232;2023-04-24T13:08:55;21.50;99.90
14008;DHT22;61651;45.508;12.232;2023-04-24T13:11:58;21.60;99.90
14008;DHT22;61651;45.508;12.232;2023-04-24T13:15:01;21.50;99.90
14008;DHT22;61651;45.508;12.232;2023-04-24T13:18:04;21.40;99.90
14008;DHT22;61651;45.508;12.232;2023-04-24T13:21:07;21.40;99.90
14008;DHT22;61651;45.508;12.232;2023-04-24T13:24:09;21.50;99.90
14008;DHT22;61651;45.508;12.232;2023-04-24T13:27:11;21.50;99.90
14008;DHT22;61651;45.508;12.232;2023-04-24T13:30:13;21.60;99.90
14008;DHT22;61651;45.508;12.232;2023-04-24T13:33:15;21.70;99.90
14008;DHT22;61651;45.508;12.232;2023-04-24T13:36:19;21.80;99.90
14008;DHT22;61651;45.508;12.232;2023-04-24T13:39:21;21.90;99.90
14008;DHT22;61651;45.508;12.232;2023-04-24T13:42:23;22.00;99.90
14008;DHT22;61651;45.508;12.232;2023-04-24T13:45:25;22.20;99.90
14008;DHT22;61651;45.508;12.232;2023-04-24T13:48:27;22.40;99.90
14008;DHT22;61651;45.508;12.232;2023-04-24T13:51:32;22.70;99.90
14008;DHT22;61651;45.508;12.232;2023-04-24T13:54:36;23.00;99.90
14008;DHT22;61651;45.508;12.232;2023-04-24T13:57:38;23.40;99.90
14008;DHT22;61651;45.508;12.232;2023-04-24T14:00:40;23.70;99.90
14008;DHT22;61651;45.508;12.232;2023-04-24T14:03:43;24.00;99.90
14008;DHT22;61651;45.508;12.232;2023-04-24T14:06:47;24.20;99.90
14008;DHT22;61651;45.508;12.232;2023-04-24T14:09:48;24.20;99.90
14008;DHT22;61651;45.508;12.232;2023-04-24T14:12:51;24.40;99.90
14008;DHT22;61651;45.508;12.232;2023-04-24T14:15:53;24.50;99.90
14008;DHT22;61651;45.508;12.232;2023-04-24T14:18:55;24.80;99.90
14008;DHT22;61651;45.508;12.232;2023-04-24T14:21:59;25.00;99.90
14008;DHT22;61651;45.508;12.232;2023-04-24T14:25:01;25.40;99.90
14008;DHT22;61651;45.508;12.232;2023-04-24T14:28:03;25.70;99.90
14008;DHT22;61651;45.508;12.232;2023-04-24T14:31:07;26.00;98.80
14008;DHT22;61651;45.508;12.232;2023-04-24T14:34:09;26.20;98.70
14008;DHT22;61651;45.508;12.232;2023-04-24T14:37:13;26.40;98.50
14008;DHT22;61651;45.508;12.232;2023-04-24T14:40:15;26.80;98.00
14008;DHT22;61651;45.508;12.232;2023-04-24T14:43:17;27.20;98.10
14008;DHT22;61651;45.508;12.232;2023-04-24T14:46:20;27.70;97.00
14008;DHT22;61651;45.508;12.232;2023-04-24T14:49:22;28.20;97.60
14008;DHT22;61651;45.508;12.232;2023-04-24T14:52:26;28.60;96.50
14008;DHT22;61651;45.508;12.232;2023-04-24T14:55:28;28.90;96.20
14008;DHT22;61651;45.508;12.232;2023-04-24T14:58:30;29.20;95.00
14008;DHT22;61651;45.508;12.232;2023-04-24T15:01:32;29.30;94.60
14008;DHT22;61651;45.508;12.232;2023-04-24T15:04:33;29.50;94.60
14008;DHT22;61651;45.508;12.232;2023-04-24T15:07:37;29.70;94.70
14008;DHT22;61651;45.508;12.232;2023-04-24T15:10:39;29.90;94.10
14008;DHT22;61651;45.508;12.232;2023-04-24T15:13:41;30.00;94.20
14008;DHT22;61651;45.508;12.232;2023-04-24T15:16:43;30.10;93.30
14008;DHT22;61651;45.508;12.232;2023-04-24T15:19:45;30.20;93.30
14008;DHT22;61651;45.508;12.232;2023-04-24T15:22:48;30.30;92.50
14008;DHT22;61651;45.508;12.232;2023-04-24T15:25:50;30.30;92.60
14008;DHT22;61651;45.508;12.232;2023-04-24T15:28:52;30.40;91.90
14008;DHT22;61651;45.508;12.232;2023-04-24T15:31:54;30.30;92.10
14008;DHT22;61651;45.508;12.232;2023-04-24T15:34:56;30.20;91.90
14008;DHT22;61651;45.508;12.232;2023-04-24T15:37:59;30.20;92.00
14008;DHT22;61651;45.508;12.232;2023-04-24T15:41:01;30.00;91.80
14008;DHT22;61651;45.508;12.232;2023-04-24T15:44:03;29.70;91.40
14008;DHT22;61651;45.508;12.232;2023-04-24T15:47:05;29.40;90.70
14008;DHT22;61651;45.508;12.232;2023-04-24T15:50:08;29.10;91.30
14008;DHT22;61651;45.508;12.232;2023-04-24T15:53:12;28.90;91.40
14008;DHT22;61651;45.508;12.232;2023-04-24T15:56:21;28.60;91.80
14008;DHT22;61651;45.508;12.232;2023-04-24T15:59:23;28.30;92.10
14008;DHT22;61651;45.508;12.232;2023-04-24T16:02:26;28.00;91.50
14008;DHT22;61651;45.508;12.232;2023-04-24T16:05:28;27.70;91.40
14008;DHT22;61651;45.508;12.232;2023-04-24T16:08:31;27.50;92.00
14008;DHT22;61651;45.508;12.232;2023-04-24T16:11:33;27.20;92.10
14008;DHT22;61651;45.508;12.232;2023-04-24T16:14:37;26.80;92.10
14008;DHT22;61651;45.508;12.232;2023-04-24T16:17:39;26.50;92.20
14008;DHT22;61651;45.508;12.232;2023-04-24T16:20:41;26.20;92.50
14008;DHT22;61651;45.508;12.232;2023-04-24T16:23:44;25.70;92.50
14008;DHT22;61651;45.508;12.232;2023-04-24T16:26:46;25.40;93.20
14008;DHT22;61651;45.508;12.232;2023-04-24T16:29:48;25.00;93.30
14008;DHT22;61651;45.508;12.232;2023-04-24T16:32:50;24.70;93.80
14008;DHT22;61651;45.508;12.232;2023-04-24T16:35:52;24.50;94.30
14008;DHT22;61651;45.508;12.232;2023-04-24T16:38:55;24.20;94.40
14008;DHT22;61651;45.508;12.232;2023-04-24T16:41:57;24.00;94.70
14008;DHT22;61651;45.508;12.232;2023-04-24T16:44:59;23.80;95.10
14008;DHT22;61651;45.508;12.232;2023-04-24T16:48:01;23.60;95.50
14008;DHT22;61651;45.508;12.232;2023-04-24T16:51:03;23.50;96.00
14008;DHT22;61651;45.508;12.232;2023-04-24T16:54:07;23.30;95.90
14008;DHT22;61651;45.508;12.232;2023-04-24T16:57:09;23.10;96.10
14008;DHT22;61651;45.508;12.232;2023-04-24T17:00:12;22.90;96.10
14008;DHT22;61651;45.508;12.232;2023-04-24T17:03:14;22.70;96.70
14008;DHT22;61651;45.508;12.232;2023-04-24T17:06:16;22.60;96.90
14008;DHT22;61651;45.508;12.232;2023-04-24T17:09:20;22.40;97.10
14008;DHT22;61651;45.508;12.232;2023-04-24T17:12:22;22.30;97.20
14008;DHT22;61651;45.508;12.232;2023-04-24T17:15:24;22.10;97.70
14008;DHT22;61651;45.508;12.232;2023-04-24T17:18:26;21.90;97.90
14008;DHT22;61651;45.508;12.232;2023-04-24T17:21:28;21.80;98.10
14008;DHT22;61651;45.508;12.232;2023-04-24T17:24:32;21.70;98.40
14008;DHT22;61651;45.508;12.232;2023-04-24T17:27:34;21.50;98.70
14008;DHT22;61651;45.508;12.232;2023-04-24T17:30:36;21.50;98.90
14008;DHT22;61651;45.508;12.232;2023-04-24T17:33:38;21.40;99.20
14008;DHT22;61651;45.508;12.232;2023-04-24T17:36:40;21.20;99.40
14008;DHT22;61651;45.508;12.232;2023-04-24T17:39:43;21.10;99.90
14008;DHT22;61651;45.508;12.232;2023-04-24T17:42:45;21.10;99.90
14008;DHT22;61651;45.508;12.232;2023-04-24T17:45:48;21.10;99.90
14008;DHT22;61651;45.508;12.232;2023-04-24T17:48:50;21.00;99.90
14008;DHT22;61651;45.508;12.232;2023-04-24T17:51:52;21.00;99.90
14008;DHT22;61651;45.508;12.232;2023-04-24T17:54:55;20.90;99.90
14008;DHT22;61651;45.508;12.232;2023-04-24T17:57:57;20.80;99.90
14008;DHT22;61651;45.508;12.232;2023-04-24T18:01:01;20.80;99.90
14008;DHT22;61651;45.508;12.232;2023-04-24T18:04:03;20.80;99.90
14008;DHT22;61651;45.508;12.232;2023-04-24T18:07:05;20.70;99.90
14008;DHT22;61651;45.508;12.232;2023-04-24T18:10:09;20.70;99.90
14008;DHT22;61651;45.508;12.232;2023-04-24T18:13:11;20.60;99.90
14008;DHT22;61651;45.508;12.232;2023-04-24T18:16:13;20.50;99.90
14008;DHT22;61651;45.508;12.232;2023-04-24T18:19:15;20.50;99.90
14008;DHT22;61651;45.508;12.232;2023-04-24T18:22:17;20.40;99.90
14008;DHT22;61651;45.508;12.232;2023-04-24T18:25:20;20.40;99.90
14008;DHT22;61651;45.508;12.232;2023-04-24T18:28:26;20.30;99.90
14008;DHT22;61651;45.508;12.232;2023-04-24T18:31:31;20.20;99.90
14008;DHT22;61651;45.508;12.232;2023-04-24T18:34:32;20.20;99.90
14008;DHT22;61651;45.508;12.232;2023-04-24T18:37:34;20.10;99.90
14008;DHT22;61651;45.508;12.232;2023-04-24T18:40:38;19.90;99.90
14008;DHT22;61651;45.508;12.232;2023-04-24T18:43:40;19.90;99.90
14008;DHT22;61651;45.508;12.232;2023-04-24T18:46:42;19.90;99.90
14008;DHT22;61651;45.508;12.232;2023-04-24T18:49:44;19.80;99.90
14008;DHT22;61651;45.508;12.232;2023-04-24T18:52:45;19.80;99.90
14008;DHT22;61651;45.508;12.232;2023-04-24T18:55:49;19.70;99.90